Hlavní strana
METAR-TAF:

METAR-TAF

Letiště :

Praia, Kapverdy

zeměpisná šířka: 14-55-27N, zeměpisná délka: 23-29-38W, výška: 70 m

Aktuální stav počasí

Zpráva byla vytvořena před 41 minutami, v 06:00 UTC
Severoseverovýchodní vítr 14 kt
Teplota 22°C
Vlhkost vzduchu 78%
Tlak 1017 hPa
Viditelnost 10 km a více
Skoro jasno ve výšce 1900 ft

METAR: GVNP 200600Z 02014KT 9999 FEW019 22/18 Q1017 NOSIG

Čas: 05:41 (06:41 UTC)

Předpověď počasí

Zpráva byla vytvořena před 1 hodinou a 41 minutami, v 05:00 UTC
Předpověď platná od 20 v 06 UTC do 21 v 12 UTC
Severoseverovýchodní vítr 12 kt
Viditelnost 10 km a více
Skoro jasno ve výšce 1600 ft

TAF: GVNP 200500Z 2006/2112 02012KT 9999 FEW016

Stav a předpovědi počasí z více než 4 000 letišť (zprávy METAR a TAF).

Červené a žluté tečky na mapě představují dostupné meteorologické stanice.

Když kurzor umístíte na tečku, zobrazí se název stanice.

Pak kliknutím zobrazíte stav a předpověď počasí.

Chcete-li změnit mapu, kliknutím na zelené tlačítko se znaménkem +mapu přiblížíte, kliknutím na zelené tlačítko se znaménkem – mapu oddálíte a kliknutím na zelené šipky přejdete na sousední mapy.


METAR-TAF: